createdAt,value
2019-03-23T02:40:18.930Z,8.53
2019-03-23T11:55:43.514Z,14.15
2019-03-23T11:57:30.931Z,14.09
2019-03-23T11:58:30.941Z,14.09
2019-03-23T11:59:30.924Z,14.15
2019-03-23T12:00:30.923Z,14.12
2019-03-23T12:06:04.935Z,14.24
2019-03-23T15:14:29.655Z,13.84
2019-03-23T15:26:31.721Z,13.66
2019-03-23T15:39:26.213Z,13.36
2019-03-23T15:40:26.210Z,13.33
2019-03-23T15:41:26.207Z,13.33
2019-03-23T15:42:26.204Z,13.33
2019-03-23T15:43:26.199Z,13.30
2019-03-23T15:44:26.200Z,13.36
2019-03-23T15:45:26.195Z,13.32
2019-03-23T15:46:26.194Z,13.28
2019-03-23T15:47:26.189Z,13.25
2019-03-23T15:48:26.187Z,13.25
2019-03-23T15:49:26.182Z,13.20
2019-03-23T15:50:26.181Z,13.10
2019-03-23T15:52:08.588Z,13.04
2019-03-23T15:53:08.588Z,13.04
2019-03-23T15:54:08.583Z,13.04
2019-03-23T15:55:08.581Z,13.05
2019-03-23T15:56:08.576Z,13.05
2019-03-23T15:57:08.581Z,13.10
2019-03-23T16:02:17.536Z,12.92
2019-03-23T16:04:09.964Z,12.86
2019-03-23T16:05:09.963Z,12.93
2019-03-23T16:06:09.958Z,13.01
2019-03-23T16:07:09.961Z,12.93
2019-03-23T18:53:38.537Z,11.22
2019-03-23T18:54:38.540Z,11.10
2019-03-23T18:55:38.530Z,11.14
2019-03-23T18:56:38.526Z,11.02
2019-03-23T18:57:38.517Z,11.00
2019-03-23T18:58:38.520Z,11.03
2019-03-23T18:59:38.514Z,11.14
2019-03-23T19:00:38.518Z,11.17
2019-03-23T19:01:38.517Z,11.04
2019-03-23T19:02:38.515Z,11.02
2019-03-23T19:03:40.365Z,10.99
2019-03-23T19:04:38.486Z,10.94
2019-03-23T19:05:38.490Z,11.03
2019-03-23T19:06:38.476Z,11.00
2019-03-23T19:07:38.468Z,10.97
2019-03-23T19:08:38.470Z,11.02
2019-03-23T19:09:38.462Z,10.97
2019-03-23T19:10:38.917Z,10.92
2019-03-23T19:11:38.458Z,10.91
2019-03-23T19:12:38.445Z,10.99
2019-03-23T19:13:38.449Z,11.00
2019-03-23T19:27:23.759Z,10.89
2019-03-23T19:28:23.757Z,10.91
2019-03-23T19:29:23.752Z,10.92
2019-03-23T19:30:23.746Z,10.92
2019-03-23T19:31:23.739Z,10.94
2019-03-23T19:32:23.737Z,10.88
2019-03-23T19:33:23.728Z,10.94
2019-03-23T19:34:23.727Z,10.91
2019-03-23T19:35:23.720Z,10.99
2019-03-23T19:36:23.716Z,10.97
2019-03-23T19:37:23.708Z,10.96
2019-03-23T19:38:23.710Z,10.88
2019-03-23T19:39:23.701Z,10.91
2019-03-23T19:40:23.695Z,10.84
2019-03-23T19:41:23.688Z,10.82
2019-03-23T19:42:23.685Z,10.79
2019-03-23T19:43:23.678Z,10.78
2019-03-23T19:44:23.845Z,10.85
2019-03-23T19:45:23.667Z,10.82
2019-03-23T19:46:23.665Z,10.85
2019-03-23T19:47:23.659Z,10.85
2019-03-23T19:48:23.657Z,10.85
2019-03-23T19:49:23.647Z,10.73
2019-03-23T19:50:23.645Z,10.88
2019-03-23T19:51:23.638Z,10.71
2019-03-23T19:52:23.635Z,10.71
2019-03-23T19:53:23.643Z,10.68
2019-03-23T19:54:23.639Z,10.61
2019-03-23T19:55:23.617Z,10.70
2019-03-23T19:56:23.613Z,10.76
2019-03-23T19:57:23.606Z,10.68
2019-03-23T19:58:23.603Z,10.61
2019-03-23T19:59:23.596Z,10.64
2019-03-23T20:00:23.603Z,10.64
2019-03-23T20:01:23.584Z,10.64
2019-03-23T20:02:23.782Z,10.60
2019-03-23T20:03:23.582Z,10.67
2019-03-23T20:04:23.584Z,10.70
2019-03-23T20:05:23.563Z,10.71
2019-03-23T20:06:23.561Z,10.64
2019-03-23T20:07:32.680Z,10.56
2019-03-23T20:08:25.513Z,10.66
2019-03-23T20:09:23.544Z,10.66
2019-03-23T20:10:23.540Z,10.70
2019-03-23T20:11:23.557Z,10.71
2019-03-23T20:12:23.530Z,10.71
2019-03-23T20:13:23.521Z,10.61
2019-03-23T20:14:23.518Z,10.61
2019-03-23T20:15:23.513Z,10.63
2019-03-23T20:16:23.512Z,10.59
2019-03-23T20:17:23.500Z,10.66
2019-03-23T20:18:23.498Z,10.68
2019-03-23T20:19:23.490Z,10.61
2019-03-23T20:20:23.487Z,10.64
2019-03-23T20:21:23.480Z,10.53
2019-03-23T20:22:23.477Z,10.53
2019-03-23T20:23:23.470Z,10.55
2019-03-23T20:24:23.468Z,10.55
2019-03-23T20:25:23.459Z,10.52
2019-03-23T20:26:23.458Z,10.47
2019-03-23T20:27:23.449Z,10.45
2019-03-23T20:29:23.443Z,10.47
2019-03-23T20:30:23.433Z,10.38
2019-03-23T20:31:23.432Z,10.36
2019-03-23T20:32:23.425Z,10.40
2019-03-23T20:33:23.419Z,10.40
2019-03-23T20:34:23.412Z,10.42
2019-03-23T20:35:23.410Z,10.41
2019-03-23T20:36:23.405Z,10.40
2019-03-23T20:37:23.398Z,10.41
2019-03-23T20:38:23.391Z,10.38
2019-03-23T20:39:23.389Z,10.30
2019-03-23T20:40:23.382Z,10.29
2019-03-23T20:41:23.377Z,10.26
2019-03-23T20:42:23.370Z,10.17
2019-03-23T20:43:23.367Z,10.18
2019-03-23T20:44:23.362Z,10.27
2019-03-23T20:45:23.355Z,10.12
2019-03-23T20:46:23.393Z,10.07
2019-03-23T20:47:23.345Z,10.14
2019-03-23T20:48:23.339Z,10.07
2019-03-23T20:49:23.335Z,10.05
2019-03-23T20:50:23.333Z,9.99
2019-03-23T20:51:23.324Z,10.02
2019-03-23T20:52:23.317Z,9.99
2019-03-23T20:53:23.313Z,10.01
2019-03-23T20:54:23.305Z,9.99
2019-03-23T20:55:23.302Z,10.07
2019-03-23T20:56:23.295Z,9.89
2019-03-23T20:57:24.338Z,9.91
2019-03-23T20:58:23.283Z,9.90
2019-03-23T20:59:23.281Z,9.83
2019-03-23T21:00:23.276Z,9.78
2019-03-23T21:01:23.270Z,9.84
2019-03-23T21:02:23.264Z,9.75
2019-03-23T21:03:23.282Z,9.75
2019-03-23T21:04:23.251Z,9.75
2019-03-23T21:05:33.194Z,9.65
2019-03-23T21:06:23.240Z,9.50
2019-03-23T21:07:23.237Z,9.48
2019-03-23T21:08:23.227Z,9.53
2019-03-23T21:09:23.223Z,9.36
2019-03-23T21:10:23.215Z,9.38
2019-03-23T22:16:50.901Z,8.28
2019-03-23T22:17:50.895Z,8.34
2019-03-23T22:18:50.887Z,8.29
2019-03-23T22:19:50.883Z,8.18
2019-03-23T22:20:50.872Z,8.19
2019-03-23T22:22:50.860Z,8.19
